createdAt,value
2023-01-04T00:00:01.821Z,1029.3
2023-01-04T00:01:01.998Z,1029.3
2023-01-04T00:02:02.873Z,1029.2
2023-01-04T00:03:03.036Z,1029.3
2023-01-04T00:04:02.550Z,1029.3
2023-01-04T00:05:02.475Z,1029.2
2023-01-04T00:06:02.284Z,1029.3
2023-01-04T00:07:02.321Z,1029.2
2023-01-04T00:08:02.287Z,1029.3
2023-01-04T00:09:02.186Z,1029.3
2023-01-04T00:10:02.274Z,1029.3
2023-01-04T00:11:02.276Z,1029.2
2023-01-04T00:12:02.192Z,1029.3
2023-01-04T00:13:02.218Z,1029.2
2023-01-04T00:14:02.116Z,1029.2
2023-01-04T00:15:02.164Z,1029.2
2023-01-04T00:16:08.894Z,1029.2
2023-01-04T00:17:02.682Z,1029.2
2023-01-04T00:18:02.745Z,1029.2
2023-01-04T00:19:02.588Z,1029.2
2023-01-04T00:20:02.687Z,1029.2
2023-01-04T00:21:02.501Z,1029.2
2023-01-04T00:22:02.575Z,1029.1
2023-01-04T00:23:02.446Z,1029.2
2023-01-04T00:24:02.478Z,1029.1
2023-01-04T00:25:02.418Z,1029.2
2023-01-04T00:26:02.295Z,1029.1
2023-01-04T00:27:02.259Z,1029.1
2023-01-04T00:28:02.615Z,1029.1
2023-01-04T00:29:02.361Z,1029.1
2023-01-04T00:30:02.447Z,1029.1
2023-01-04T00:31:02.416Z,1029.1
2023-01-04T00:32:02.243Z,1029.2
2023-01-04T00:33:02.273Z,1029.2
2023-01-04T00:34:02.266Z,1029.2
2023-01-04T00:35:02.094Z,1029.2
2023-01-04T00:36:02.208Z,1029.1
2023-01-04T00:37:02.081Z,1029.1
2023-01-04T00:38:02.027Z,1029.1
2023-01-04T00:39:01.897Z,1029.1
2023-01-04T00:40:02.056Z,1029.1
2023-01-04T00:41:01.840Z,1029.1
2023-01-04T00:42:02.516Z,1029.1
2023-01-04T00:43:02.336Z,1029.2
2023-01-04T00:44:02.184Z,1029.2
2023-01-04T00:45:02.240Z,1029.1
2023-01-04T00:46:02.316Z,1029.1
2023-01-04T00:47:02.014Z,1029.1
2023-01-04T00:48:02.068Z,1029.1
2023-01-04T00:49:01.989Z,1029.1
2023-01-04T00:50:02.112Z,1029.1
2023-01-04T00:51:01.898Z,1029.1
2023-01-04T00:52:01.975Z,1029.1
2023-01-04T00:53:01.894Z,1029
2023-01-04T00:54:01.862Z,1029
2023-01-04T00:55:01.711Z,1029.1
2023-01-04T00:56:01.755Z,1029.1
2023-01-04T00:57:02.778Z,1029.1
2023-01-04T00:58:02.646Z,1029.1
2023-01-04T00:59:02.671Z,1029.1
2023-01-04T01:00:02.629Z,1029.1
2023-01-04T01:01:02.624Z,1029.1
2023-01-04T01:02:02.748Z,1029.1
2023-01-04T01:03:03.372Z,1029.1
2023-01-04T01:04:02.489Z,1029.1
2023-01-04T01:05:02.501Z,1029
2023-01-04T01:06:02.439Z,1029
2023-01-04T01:07:02.280Z,1029.1
2023-01-04T01:08:02.356Z,1029.1
2023-01-04T01:09:02.305Z,1029.1
2023-01-04T01:10:02.177Z,1029.1
2023-01-04T01:11:02.154Z,1029.1
2023-01-04T01:12:02.024Z,1029.2
2023-01-04T01:13:02.230Z,1029.1
2023-01-04T01:14:02.044Z,1029.1
2023-01-04T01:15:02.143Z,1029.2
2023-01-04T01:16:02.294Z,1029.2
2023-01-04T01:17:02.125Z,1029.1
2023-01-04T01:18:01.961Z,1029.1
2023-01-04T01:19:01.820Z,1029.1
2023-01-04T01:20:01.974Z,1029.2
2023-01-04T01:21:01.817Z,1029.2
2023-01-04T01:22:01.869Z,1029.2
2023-01-04T01:23:01.687Z,1029.3
2023-01-04T01:24:02.704Z,1029.2
2023-01-04T01:25:02.642Z,1029.2
2023-01-04T01:26:02.654Z,1029.2
2023-01-04T01:27:02.525Z,1029.2
2023-01-04T01:28:02.544Z,1029.2
2023-01-04T01:29:02.496Z,1029.2
2023-01-04T01:30:02.380Z,1029.2
2023-01-04T01:31:09.303Z,1029.2
2023-01-04T01:32:02.352Z,1029.2
2023-01-04T01:33:02.216Z,1029.2
2023-01-04T01:34:02.099Z,1029.3
2023-01-04T01:35:01.983Z,1029.2
2023-01-04T01:36:02.149Z,1029.2
2023-01-04T01:37:02.026Z,1029.2
2023-01-04T01:38:02.119Z,1029.2
2023-01-04T01:39:02.082Z,1029.2
2023-01-04T01:40:02.122Z,1029.2
2023-01-04T01:41:02.132Z,1029.2
2023-01-04T01:42:02.175Z,1029.2
2023-01-04T01:43:02.246Z,1029.2
2023-01-04T01:44:02.262Z,1029.2
2023-01-04T01:45:02.276Z,1029.2
2023-01-04T01:46:02.405Z,1029.1
2023-01-04T01:47:02.257Z,1029.1
2023-01-04T01:48:02.164Z,1029.2
2023-01-04T01:49:02.037Z,1029.1
2023-01-04T01:50:02.197Z,1029.2
2023-01-04T01:51:02.000Z,1029.1
2023-01-04T01:52:02.133Z,1029.2
2023-01-04T01:53:01.974Z,1029.1
2023-01-04T01:54:01.987Z,1029.1
2023-01-04T01:55:01.786Z,1029.1
2023-01-04T01:56:01.991Z,1029.1
2023-01-04T01:57:01.756Z,1029.1
2023-01-04T01:58:02.755Z,1029.1
2023-01-04T01:59:02.608Z,1029.1
2023-01-04T02:00:02.728Z,1029.1
2023-01-04T02:01:02.541Z,1029.1
2023-01-04T02:02:03.016Z,1029.1
2023-01-04T02:03:02.380Z,1029.1
2023-01-04T02:04:02.556Z,1029.1
2023-01-04T02:05:02.319Z,1029.1
2023-01-04T02:06:02.341Z,1029
2023-01-04T02:07:02.285Z,1029
2023-01-04T02:08:02.175Z,1029
2023-01-04T02:09:02.199Z,1028.9
2023-01-04T02:10:01.999Z,1028.9
2023-01-04T02:11:02.019Z,1028.9
2023-01-04T02:12:01.896Z,1028.9
2023-01-04T02:13:02.055Z,1029
2023-01-04T02:14:01.860Z,1028.9
2023-01-04T02:15:01.809Z,1028.9
2023-01-04T02:16:01.892Z,1028.9
2023-01-04T02:17:02.606Z,1028.9
2023-01-04T02:18:02.629Z,1028.9
2023-01-04T02:19:02.469Z,1028.9
2023-01-04T02:20:02.578Z,1028.9
2023-01-04T02:21:02.467Z,1028.9
2023-01-04T02:22:02.320Z,1028.9
2023-01-04T02:23:02.374Z,1028.9
2023-01-04T02:24:02.343Z,1028.9
2023-01-04T02:25:02.143Z,1028.9
2023-01-04T02:26:02.148Z,1028.8
2023-01-04T02:27:02.023Z,1028.9
2023-01-04T02:28:02.093Z,1028.9
2023-01-04T02:29:01.937Z,1028.9
2023-01-04T02:30:01.897Z,1028.9
2023-01-04T02:31:01.858Z,1028.9
2023-01-04T02:32:01.902Z,1028.8
2023-01-04T02:33:01.956Z,1028.8
2023-01-04T02:34:01.746Z,1028.8
2023-01-04T02:35:01.732Z,1028.8
2023-01-04T02:36:02.732Z,1028.7
2023-01-04T02:37:02.572Z,1028.8
2023-01-04T02:38:02.596Z,1028.7
2023-01-04T02:39:02.472Z,1028.8
2023-01-04T02:40:02.549Z,1028.8
2023-01-04T02:41:02.391Z,1028.8
2023-01-04T02:42:02.411Z,1028.7
2023-01-04T02:43:02.344Z,1028.7
2023-01-04T02:44:02.247Z,1028.8
2023-01-04T02:45:02.264Z,1028.7
2023-01-04T02:46:02.048Z,1028.7
2023-01-04T02:47:02.275Z,1028.7
2023-01-04T02:48:02.125Z,1028.7
2023-01-04T02:49:01.979Z,1028.8
2023-01-04T02:50:06.131Z,1028.8
2023-01-04T02:51:01.849Z,1028.8
2023-01-04T02:52:01.939Z,1028.7
2023-01-04T02:53:01.816Z,1028.7
2023-01-04T02:54:01.808Z,1028.7
2023-01-04T02:55:02.740Z,1028.7
2023-01-04T02:56:02.664Z,1028.7
2023-01-04T02:57:06.555Z,1028.7
2023-01-04T02:58:02.304Z,1028.7
2023-01-04T02:59:02.317Z,1028.6
2023-01-04T03:00:02.347Z,1028.6
2023-01-04T03:01:02.093Z,1028.6
2023-01-04T03:02:02.476Z,1028.7
2023-01-04T03:03:02.747Z,1028.7
2023-01-04T03:04:02.776Z,1028.6
2023-01-04T03:05:02.575Z,1028.6
2023-01-04T03:06:02.548Z,1028.6
2023-01-04T03:07:02.454Z,1028.6
2023-01-04T03:08:02.538Z,1028.6
2023-01-04T03:09:02.469Z,1028.6
2023-01-04T03:10:02.285Z,1028.5
2023-01-04T03:11:02.275Z,1028.5
2023-01-04T03:12:02.247Z,1028.6
2023-01-04T03:13:02.100Z,1028.5
2023-01-04T03:14:33.854Z,1028.5
2023-01-04T03:15:02.688Z,1028.6
2023-01-04T03:16:02.741Z,1028.5
2023-01-04T03:17:02.629Z,1028.5
2023-01-04T03:18:02.593Z,1028.5
2023-01-04T03:19:02.447Z,1028.5
2023-01-04T03:20:02.537Z,1028.4
2023-01-04T03:21:02.495Z,1028.5
2023-01-04T03:22:02.283Z,1028.4
2023-01-04T03:23:02.355Z,1028.4
2023-01-04T03:24:02.289Z,1028.3
2023-01-04T03:25:02.159Z,1028.3
2023-01-04T03:26:02.089Z,1028.3
2023-01-04T03:27:02.015Z,1028.3
2023-01-04T03:28:02.008Z,1028.3
2023-01-04T03:29:01.863Z,1028.3
2023-01-04T03:30:01.838Z,1028.3
2023-01-04T03:31:01.860Z,1028.3
2023-01-04T03:32:01.783Z,1028.3
2023-01-04T03:33:02.805Z,1028.3
2023-01-04T03:34:02.645Z,1028.2
2023-01-04T03:35:02.720Z,1028.2
2023-01-04T03:36:02.617Z,1028.2
2023-01-04T03:37:02.645Z,1028.2
2023-01-04T03:38:02.487Z,1028.2
2023-01-04T03:39:02.545Z,1028.2
2023-01-04T03:40:02.452Z,1028.2
2023-01-04T03:41:02.465Z,1028.1
2023-01-04T03:42:02.371Z,1028.1
2023-01-04T03:43:02.213Z,1028.1
2023-01-04T03:44:02.271Z,1028.1
2023-01-04T03:45:10.889Z,1028.1
2023-01-04T03:46:02.621Z,1028.1
2023-01-04T03:47:02.184Z,1028.1
2023-01-04T03:48:01.975Z,1028.1
2023-01-04T03:49:02.010Z,1028.1
2023-01-04T03:50:01.835Z,1028.1
2023-01-04T03:51:01.876Z,1028.1
2023-01-04T03:52:01.793Z,1028.1
2023-01-04T03:53:02.823Z,1028
2023-01-04T03:54:02.600Z,1028
2023-01-04T03:55:02.669Z,1028
2023-01-04T03:56:02.593Z,1028
2023-01-04T03:57:02.762Z,1028
2023-01-04T03:58:02.595Z,1028
2023-01-04T03:59:02.746Z,1028
2023-01-04T04:00:02.686Z,1028
2023-01-04T04:01:02.957Z,1028
2023-01-04T04:02:02.520Z,1028.1
2023-01-04T04:03:02.379Z,1028.1
2023-01-04T04:04:02.485Z,1028
2023-01-04T04:05:02.336Z,1028
2023-01-04T04:06:02.259Z,1028
2023-01-04T04:07:02.259Z,1028.1
2023-01-04T04:08:02.222Z,1028
2023-01-04T04:09:02.269Z,1028
2023-01-04T04:10:02.069Z,1028
2023-01-04T04:11:02.107Z,1028
2023-01-04T04:12:01.964Z,1027.9
2023-01-04T04:13:02.019Z,1028
2023-01-04T04:14:01.872Z,1028
2023-01-04T04:15:01.917Z,1028
2023-01-04T04:16:01.808Z,1028
2023-01-04T04:17:02.843Z,1028
2023-01-04T04:18:02.674Z,1028
2023-01-04T04:19:09.448Z,1027.9
2023-01-04T04:20:02.165Z,1028
2023-01-04T04:21:02.205Z,1028
2023-01-04T04:22:02.030Z,1028
2023-01-04T04:23:02.106Z,1028
2023-01-04T04:24:01.969Z,1028
2023-01-04T04:25:01.954Z,1028
2023-01-04T04:26:01.762Z,1028
2023-01-04T04:27:01.736Z,1027.9
2023-01-04T04:28:02.781Z,1027.9
2023-01-04T04:29:02.721Z,1027.9
2023-01-04T04:30:02.639Z,1028
2023-01-04T04:31:02.541Z,1027.9
2023-01-04T04:32:02.825Z,1027.9
2023-01-04T04:33:02.779Z,1027.8
2023-01-04T04:34:02.647Z,1027.8
2023-01-04T04:35:02.669Z,1027.8
2023-01-04T04:36:02.582Z,1027.8
2023-01-04T04:37:02.627Z,1027.8
2023-01-04T04:38:02.429Z,1027.8
2023-01-04T04:39:02.475Z,1027.7
2023-01-04T04:40:02.444Z,1027.7
2023-01-04T04:41:02.292Z,1027.8
2023-01-04T04:42:02.308Z,1027.7
2023-01-04T04:43:02.119Z,1027.7
2023-01-04T04:44:02.206Z,1027.7
2023-01-04T04:45:02.024Z,1027.7
2023-01-04T04:46:02.304Z,1027.7
2023-01-04T04:47:02.105Z,1027.8
2023-01-04T04:48:02.185Z,1027.7
2023-01-04T04:49:01.975Z,1027.7
2023-01-04T04:50:01.999Z,1027.7
2023-01-04T04:51:01.977Z,1027.7
2023-01-04T04:52:01.895Z,1027.7
2023-01-04T04:53:01.753Z,1027.7
2023-01-04T04:54:01.797Z,1027.7
2023-01-04T04:55:02.758Z,1027.7
2023-01-04T04:56:02.612Z,1027.7
2023-01-04T04:57:02.684Z,1027.7
2023-01-04T04:58:02.552Z,1027.6
2023-01-04T04:59:02.657Z,1027.6
2023-01-04T05:00:02.429Z,1027.6
2023-01-04T05:01:02.619Z,1027.6
2023-01-04T05:02:03.199Z,1027.5
2023-01-04T05:03:02.653Z,1027.5
2023-01-04T05:04:02.624Z,1027.5
2023-01-04T05:05:02.432Z,1027.5
2023-01-04T05:06:02.546Z,1027.5
2023-01-04T05:07:12.712Z,1027.5
2023-01-04T05:08:02.678Z,1027.5
2023-01-04T05:09:02.683Z,1027.4
2023-01-04T05:10:02.558Z,1027.5
2023-01-04T05:11:02.553Z,1027.4
2023-01-04T05:12:02.485Z,1027.4
2023-01-04T05:13:02.601Z,1027.4
2023-01-04T05:14:02.482Z,1027.4
2023-01-04T05:15:02.283Z,1027.4
2023-01-04T05:16:02.488Z,1027.4
2023-01-04T05:17:02.864Z,1027.4
2023-01-04T05:18:02.717Z,1027.5
2023-01-04T05:19:02.778Z,1027.4
2023-01-04T05:20:02.637Z,1027.4
2023-01-04T05:21:02.801Z,1027.4
2023-01-04T05:22:02.629Z,1027.4
2023-01-04T05:23:02.641Z,1027.3
2023-01-04T05:24:02.498Z,1027.4
2023-01-04T05:25:02.535Z,1027.5
2023-01-04T05:26:02.463Z,1027.4
2023-01-04T05:27:02.306Z,1027.4
2023-01-04T05:28:02.449Z,1027.4
2023-01-04T05:29:02.487Z,1027.4
2023-01-04T05:30:02.331Z,1027.3
2023-01-04T05:31:02.149Z,1027.4
2023-01-04T05:32:02.382Z,1027.3
2023-01-04T05:33:02.151Z,1027.3
2023-01-04T05:34:02.129Z,1027.3
2023-01-04T05:35:01.979Z,1027.3
2023-01-04T05:36:02.049Z,1027.4
2023-01-04T05:37:01.889Z,1027.4
2023-01-04T05:38:01.924Z,1027.4
2023-01-04T05:39:01.690Z,1027.3
2023-01-04T05:40:02.748Z,1027.3
2023-01-04T05:41:02.716Z,1027.3
2023-01-04T05:42:02.685Z,1027.3
2023-01-04T05:43:02.550Z,1027.4
2023-01-04T05:44:02.568Z,1027.4
2023-01-04T05:45:02.479Z,1027.4
2023-01-04T05:46:02.774Z,1027.4
2023-01-04T05:47:02.401Z,1027.3
2023-01-04T05:48:02.367Z,1027.4
2023-01-04T05:49:02.396Z,1027.3
2023-01-04T05:50:02.302Z,1027.3
2023-01-04T05:51:02.109Z,1027.3
2023-01-04T05:52:02.158Z,1027.3
2023-01-04T05:53:02.055Z,1027.3
2023-01-04T05:54:02.055Z,1027.3
2023-01-04T05:55:01.869Z,1027.3
2023-01-04T05:56:01.911Z,1027.2
2023-01-04T05:57:01.800Z,1027.2
2023-01-04T05:58:01.812Z,1027.2
2023-01-04T05:59:02.744Z,1027.2
2023-01-04T06:00:02.699Z,1027.2
2023-01-04T06:01:02.735Z,1027.2
2023-01-04T06:02:02.952Z,1027.2
2023-01-04T06:03:02.419Z,1027.3
2023-01-04T06:04:02.566Z,1027.2
2023-01-04T06:05:02.385Z,1027.2
2023-01-04T06:06:02.436Z,1027.1
2023-01-04T06:07:02.366Z,1027.1
2023-01-04T06:08:02.275Z,1027.2
2023-01-04T06:09:02.235Z,1027.2
2023-01-04T06:10:02.176Z,1027.2
2023-01-04T06:11:02.135Z,1027.1
2023-01-04T06:12:01.963Z,1027.2
2023-01-04T06:13:02.042Z,1027.2
2023-01-04T06:14:01.884Z,1027.1
2023-01-04T06:15:01.903Z,1027.2
2023-01-04T06:16:01.687Z,1027.2
2023-01-04T06:17:02.865Z,1027.1
2023-01-04T06:18:02.748Z,1027.1
2023-01-04T06:19:02.612Z,1027.1
2023-01-04T06:20:02.712Z,1027.1
2023-01-04T06:21:02.574Z,1027.1
2023-01-04T06:22:02.590Z,1027.1
2023-01-04T06:23:02.410Z,1027.1
2023-01-04T06:24:02.473Z,1027.1
2023-01-04T06:25:02.443Z,1027.1
2023-01-04T06:26:02.328Z,1027.1
2023-01-04T06:27:02.357Z,1027.1
2023-01-04T06:28:02.129Z,1027.1
2023-01-04T06:29:02.171Z,1027.1
2023-01-04T06:30:01.921Z,1027.1
2023-01-04T06:31:02.097Z,1027
2023-01-04T06:32:01.925Z,1027.1
2023-01-04T06:33:01.905Z,1027
2023-01-04T06:34:01.797Z,1027.1
2023-01-04T06:35:02.795Z,1027
2023-01-04T06:36:02.676Z,1027.1
2023-01-04T06:37:02.761Z,1027.1
2023-01-04T06:38:02.600Z,1027.1
2023-01-04T06:39:02.643Z,1027.1
2023-01-04T06:40:02.497Z,1027.2
2023-01-04T06:41:02.553Z,1027.2
2023-01-04T06:42:07.687Z,1027.2
2023-01-04T06:43:02.445Z,1027.2
2023-01-04T06:44:02.507Z,1027.2
2023-01-04T06:45:02.562Z,1027.2
2023-01-04T06:46:02.414Z,1027.1
2023-01-04T06:47:02.194Z,1027.1
2023-01-04T06:48:09.735Z,1027
2023-01-04T06:49:02.589Z,1027
2023-01-04T06:50:02.527Z,1026.9
2023-01-04T06:51:02.406Z,1026.9
2023-01-04T06:52:02.403Z,1026.9
2023-01-04T06:53:02.257Z,1026.9
2023-01-04T06:54:02.216Z,1026.8
2023-01-04T06:55:02.126Z,1026.8
2023-01-04T06:56:02.201Z,1026.8
2023-01-04T06:57:02.099Z,1026.8
2023-01-04T06:58:02.146Z,1026.8
2023-01-04T06:59:02.007Z,1026.8
2023-01-04T07:00:02.202Z,1026.8
2023-01-04T07:01:02.104Z,1026.8
2023-01-04T07:02:02.292Z,1026.8
2023-01-04T07:03:16.749Z,1026.8
2023-01-04T07:04:02.689Z,1026.8
2023-01-04T07:05:02.745Z,1026.7
2023-01-04T07:06:02.587Z,1026.7
2023-01-04T07:07:02.496Z,1026.8
2023-01-04T07:08:08.906Z,1026.7
2023-01-04T07:09:02.676Z,1026.7
2023-01-04T07:10:10.286Z,1026.7
2023-01-04T07:11:01.993Z,1026.6
2023-01-04T07:12:02.046Z,1026.6
2023-01-04T07:13:01.994Z,1026.6
2023-01-04T07:14:02.078Z,1026.6
2023-01-04T07:15:01.803Z,1026.7
2023-01-04T07:16:01.982Z,1026.6
2023-01-04T07:17:02.666Z,1026.7
2023-01-04T07:18:02.432Z,1026.7
2023-01-04T07:19:02.493Z,1026.7
2023-01-04T07:20:02.471Z,1026.7
2023-01-04T07:21:02.342Z,1026.7
2023-01-04T07:22:02.491Z,1026.7
2023-01-04T07:23:02.466Z,1026.6
2023-01-04T07:24:02.198Z,1026.7
2023-01-04T07:25:02.027Z,1026.6
2023-01-04T07:26:01.844Z,1026.6
2023-01-04T07:27:01.867Z,1026.7
2023-01-04T07:28:01.743Z,1026.6
2023-01-04T07:29:02.733Z,1026.7
2023-01-04T07:30:02.608Z,1026.7
2023-01-04T07:31:02.786Z,1026.7
2023-01-04T07:32:02.556Z,1026.7
2023-01-04T07:33:02.586Z,1026.7
2023-01-04T07:34:02.488Z,1026.7
2023-01-04T07:35:02.404Z,1026.7
2023-01-04T07:36:02.523Z,1026.7
2023-01-04T07:37:02.520Z,1026.7
2023-01-04T07:38:02.437Z,1026.7
2023-01-04T07:39:02.565Z,1026.7
2023-01-04T07:40:02.537Z,1026.6
2023-01-04T07:41:02.523Z,1026.7
2023-01-04T07:42:02.606Z,1026.6
2023-01-04T07:43:02.514Z,1026.7
2023-01-04T07:44:02.583Z,1026.7
2023-01-04T07:45:02.436Z,1026.7
2023-01-04T07:46:02.770Z,1026.8
2023-01-04T07:47:02.419Z,1026.8
2023-01-04T07:48:02.264Z,1026.8
2023-01-04T07:49:02.344Z,1026.8
2023-01-04T07:50:02.328Z,1026.7
2023-01-04T07:51:02.097Z,1026.7
2023-01-04T07:52:02.204Z,1026.7
2023-01-04T07:53:02.101Z,1026.8
2023-01-04T07:54:02.075Z,1026.7
2023-01-04T07:55:01.968Z,1026.7
2023-01-04T07:56:01.957Z,1026.7
2023-01-04T07:57:01.814Z,1026.7
2023-01-04T07:58:01.827Z,1026.7
2023-01-04T07:59:02.799Z,1026.6
2023-01-04T08:00:02.736Z,1026.6
2023-01-04T08:01:02.719Z,1026.7
2023-01-04T08:02:03.078Z,1026.6
2023-01-04T08:03:02.212Z,1026.7
2023-01-04T08:04:02.378Z,1026.6
2023-01-04T08:05:02.325Z,1026.6
2023-01-04T08:06:02.179Z,1026.6
2023-01-04T08:07:02.101Z,1026.6
2023-01-04T08:08:02.191Z,1026.5
2023-01-04T08:09:02.046Z,1026.6
2023-01-04T08:10:02.059Z,1026.6
2023-01-04T08:11:01.873Z,1026.6
2023-01-04T08:12:01.881Z,1026.6
2023-01-04T08:13:01.754Z,1026.6
2023-01-04T08:14:02.841Z,1026.5
2023-01-04T08:15:02.637Z,1026.5
2023-01-04T08:16:02.941Z,1026.6
2023-01-04T08:17:02.742Z,1026.5
2023-01-04T08:18:02.732Z,1026.5
2023-01-04T08:19:02.652Z,1026.5
2023-01-04T08:20:02.718Z,1026.5
2023-01-04T08:21:02.520Z,1026.5
2023-01-04T08:22:02.585Z,1026.4
2023-01-04T08:23:02.532Z,1026.4
2023-01-04T08:24:02.408Z,1026.4
2023-01-04T08:25:02.521Z,1026.5
2023-01-04T08:26:02.532Z,1026.5
2023-01-04T08:27:02.463Z,1026.5
2023-01-04T08:28:02.573Z,1026.5
2023-01-04T08:29:02.464Z,1026.5
2023-01-04T08:30:02.551Z,1026.4
2023-01-04T08:31:02.596Z,1026.4
2023-01-04T08:32:02.546Z,1026.3
2023-01-04T08:33:02.607Z,1026.3
2023-01-04T08:34:02.524Z,1026.3
2023-01-04T08:35:02.472Z,1026.3
2023-01-04T08:36:02.406Z,1026.3
2023-01-04T08:37:02.281Z,1026.2
2023-01-04T08:39:01.545Z,1026.2
2023-01-04T08:39:03.028Z,1026.2
2023-01-04T08:40:01.880Z,1026.2
2023-01-04T08:42:01.054Z,1026.2
2023-01-04T08:42:31.671Z,1026.2
2023-01-04T08:43:01.874Z,1026.2
2023-01-04T08:44:02.728Z,1026.1
2023-01-04T08:45:02.891Z,1026.3
2023-01-04T08:46:02.821Z,1026.1
2023-01-04T08:47:03.064Z,1026.1
2023-01-04T08:48:01.836Z,1026.2
2023-01-04T08:49:01.817Z,1026.2
2023-01-04T08:50:11.419Z,1026.2
2023-01-04T08:51:02.239Z,1026.2
2023-01-04T08:52:02.112Z,1026.2
2023-01-04T08:53:02.151Z,1026.1
2023-01-04T08:54:02.092Z,1026.2
2023-01-04T08:55:14.632Z,1026.2
2023-01-04T08:56:02.752Z,1026.1
2023-01-04T08:57:02.650Z,1026.1
2023-01-04T08:58:02.656Z,1026.1
2023-01-04T08:59:02.586Z,1026
2023-01-04T09:00:02.705Z,1026
2023-01-04T09:01:02.628Z,1026
2023-01-04T09:02:06.910Z,1025.9
2023-01-04T09:03:03.186Z,1025.9
2023-01-04T09:04:02.430Z,1025.9
2023-01-04T09:05:02.589Z,1025.9
2023-01-04T09:06:02.463Z,1025.9
2023-01-04T09:07:02.554Z,1025.9
2023-01-04T09:08:02.434Z,1025.9
2023-01-04T09:09:02.368Z,1026
2023-01-04T09:10:02.361Z,1025.9
2023-01-04T09:11:02.247Z,1025.9
2023-01-04T09:12:02.129Z,1025.9
2023-01-04T09:13:02.203Z,1025.9
2023-01-04T09:14:09.885Z,1025.8
2023-01-04T09:15:02.646Z,1025.9
2023-01-04T09:16:02.840Z,1025.9
2023-01-04T09:17:02.677Z,1025.9
2023-01-04T09:18:33.496Z,1025.9
2023-01-04T09:19:02.297Z,1025.9
2023-01-04T09:20:02.391Z,1025.9
2023-01-04T09:21:02.438Z,1025.9
2023-01-04T09:22:02.509Z,1025.8
2023-01-04T09:23:02.371Z,1025.8
2023-01-04T09:24:02.364Z,1025.8
2023-01-04T09:25:02.188Z,1025.8
2023-01-04T09:26:10.059Z,1025.8
2023-01-04T09:27:01.760Z,1025.8
2023-01-04T09:28:01.844Z,1025.7
2023-01-04T09:29:02.773Z,1025.7
2023-01-04T09:30:02.700Z,1025.7
2023-01-04T09:31:02.956Z,1025.6
2023-01-04T09:32:02.822Z,1025.7
2023-01-04T09:33:02.689Z,1025.6
2023-01-04T09:34:18.687Z,1025.6
2023-01-04T09:35:02.403Z,1025.6
2023-01-04T09:36:02.383Z,1025.5
2023-01-04T09:37:02.399Z,1025.6
2023-01-04T09:38:02.287Z,1025.6
2023-01-04T09:39:02.297Z,1025.5
2023-01-04T09:40:02.256Z,1025.4
2023-01-04T09:41:02.161Z,1025.5
2023-01-04T09:42:02.256Z,1025.4
2023-01-04T09:43:22.703Z,1025.3
2023-01-04T09:44:02.454Z,1025.3
2023-01-04T09:45:26.249Z,1025.3
2023-01-04T09:46:01.988Z,1025.3
2023-01-04T09:47:02.736Z,1025.3
2023-01-04T09:48:02.703Z,1025.3
2023-01-04T09:49:02.544Z,1025.2
2023-01-04T09:50:02.650Z,1025.2
2023-01-04T09:51:02.504Z,1025.1
2023-01-04T09:52:02.754Z,1025.1
2023-01-04T09:53:02.611Z,1025.3
2023-01-04T09:54:02.629Z,1025.2
2023-01-04T09:55:41.894Z,1025
2023-01-04T09:56:01.660Z,1025.1
2023-01-04T09:57:02.774Z,1025.1
2023-01-04T09:58:02.644Z,1025.1
2023-01-04T09:59:02.668Z,1025
2023-01-04T10:00:02.557Z,1024.9
2023-01-04T10:01:02.947Z,1024.9
2023-01-04T10:02:02.922Z,1024.9
2023-01-04T10:03:02.437Z,1024.9
2023-01-04T10:04:02.307Z,1024.9
2023-01-04T10:05:02.267Z,1024.9
2023-01-04T10:06:02.266Z,1025
2023-01-04T10:07:05.935Z,1024.9
2023-01-04T10:08:02.698Z,1024.8
2023-01-04T10:09:02.792Z,1024.8
2023-01-04T10:10:02.603Z,1024.8
2023-01-04T10:11:02.656Z,1024.8
2023-01-04T10:12:02.573Z,1024.8
2023-01-04T10:13:02.588Z,1024.7
2023-01-04T10:14:02.516Z,1024.8
2023-01-04T10:15:02.463Z,1024.6
2023-01-04T10:16:02.908Z,1024.7
2023-01-04T10:17:24.039Z,1024.7
2023-01-04T10:19:50.687Z,1024.6
2023-01-04T10:21:33.313Z,1024.7
2023-01-04T10:21:34.239Z,1024.6
2023-01-04T10:21:35.214Z,1024.7
2023-01-04T10:22:02.115Z,1024.6
2023-01-04T10:23:02.010Z,1024.5
2023-01-04T10:24:01.878Z,1024.5
2023-01-04T10:25:02.005Z,1024.5
2023-01-04T10:26:01.765Z,1024.5
2023-01-04T10:27:02.019Z,1024.6
2023-01-04T10:28:01.731Z,1024.6
2023-01-04T10:29:01.804Z,1024.6
2023-01-04T10:30:02.755Z,1024.6
2023-01-04T10:31:42.301Z,1024.4
2023-01-04T10:32:02.245Z,1024.5
2023-01-04T10:33:02.187Z,1024.4
2023-01-04T10:34:02.016Z,1024.3
2023-01-04T10:35:02.179Z,1024.5
2023-01-04T10:36:01.952Z,1024.3
2023-01-04T10:37:01.966Z,1024.4
2023-01-04T10:38:01.858Z,1024.3
2023-01-04T10:39:01.822Z,1024.4
2023-01-04T10:40:01.685Z,1024.4
2023-01-04T10:41:02.736Z,1024.3
2023-01-04T10:42:02.597Z,1024.2
2023-01-04T10:43:02.665Z,1024.2
2023-01-04T10:44:14.735Z,1024.1
2023-01-04T10:45:09.930Z,1024.1
2023-01-04T10:46:02.839Z,1024.1
2023-01-04T10:47:02.896Z,1024.1
2023-01-04T10:48:02.802Z,1024.1
2023-01-04T10:49:02.687Z,1024
2023-01-04T10:50:02.751Z,1024.1
2023-01-04T10:51:11.068Z,1024
2023-01-04T10:52:01.778Z,1024.1
2023-01-04T10:53:01.832Z,1024
2023-01-04T10:54:02.785Z,1024
2023-01-04T10:55:02.608Z,1024.2
2023-01-04T10:56:27.835Z,1024
2023-01-04T10:57:07.517Z,1024
2023-01-04T10:58:02.284Z,1023.9
2023-01-04T10:59:02.330Z,1023.9
2023-01-04T11:00:02.311Z,1023.9
2023-01-04T11:01:02.209Z,1023.8
2023-01-04T11:02:02.868Z,1023.9
2023-01-04T11:03:10.044Z,1023.9
2023-01-04T11:04:01.837Z,1023.7
2023-01-04T11:05:02.050Z,1023.7
2023-01-04T11:06:01.857Z,1023.7
2023-01-04T11:07:01.857Z,1023.8
2023-01-04T11:08:01.748Z,1023.8
2023-01-04T11:09:02.823Z,1023.8
2023-01-04T11:10:02.753Z,1023.9
2023-01-04T11:11:02.637Z,1023.9
2023-01-04T11:12:02.520Z,1023.7
2023-01-04T11:13:02.726Z,1023.6
2023-01-04T11:14:02.528Z,1023.5
2023-01-04T11:15:02.632Z,1023.6
2023-01-04T11:16:02.655Z,1023.5
2023-01-04T11:17:02.503Z,1023.4
2023-01-04T11:18:02.527Z,1023.4
2023-01-04T11:19:02.473Z,1023.5
2023-01-04T11:20:02.436Z,1023.5
2023-01-04T11:21:02.511Z,1023.4
2023-01-04T11:22:02.470Z,1023.5
2023-01-04T11:23:02.417Z,1023.4
2023-01-04T11:24:33.854Z,1023.4
2023-01-04T11:25:37.096Z,1023.3
2023-01-04T11:26:01.999Z,1023.3
2023-01-04T11:27:02.046Z,1023.3
2023-01-04T11:28:01.850Z,1023.3
2023-01-04T11:29:01.952Z,1023.2
2023-01-04T11:30:01.879Z,1023.3
2023-01-04T11:31:01.757Z,1023.4
2023-01-04T11:32:02.025Z,1023.3
2023-01-04T11:33:01.888Z,1023.2
2023-01-04T11:34:01.794Z,1023.1
2023-01-04T11:35:02.791Z,1023.3
2023-01-04T11:36:02.652Z,1023
2023-01-04T11:37:02.737Z,1023
2023-01-04T11:38:02.543Z,1022.9
2023-01-04T11:39:03.010Z,1023
2023-01-04T11:40:01.692Z,1022.8
2023-01-04T11:41:02.764Z,1022.9
2023-01-04T11:42:04.337Z,1022.9
2023-01-04T11:43:02.020Z,1022.8
2023-01-04T11:44:02.087Z,1022.8
2023-01-04T11:45:01.936Z,1022.9
2023-01-04T11:46:02.134Z,1022.8
2023-01-04T11:47:02.045Z,1022.9
2023-01-04T11:48:02.062Z,1022.8
2023-01-04T11:49:01.991Z,1022.7
2023-01-04T11:50:02.036Z,1022.6
2023-01-04T11:51:01.819Z,1022.7
2023-01-04T11:52:01.874Z,1022.7
2023-01-04T11:53:01.726Z,1022.7
2023-01-04T11:54:02.831Z,1022.7
2023-01-04T11:55:02.643Z,1022.7
2023-01-04T11:56:02.688Z,1022.7
2023-01-04T11:57:12.484Z,1023
2023-01-04T11:58:02.243Z,1022.8
2023-01-04T11:59:02.262Z,1022.7
2023-01-04T12:00:02.238Z,1022.6
2023-01-04T12:01:02.059Z,1022.6
2023-01-04T12:02:02.387Z,1022.7
2023-01-04T12:03:03.519Z,1022.7
2023-01-04T12:04:02.371Z,1022.6
2023-01-04T12:05:02.226Z,1022.7
2023-01-04T12:06:02.229Z,1022.4
2023-01-04T12:07:02.024Z,1022.5
2023-01-04T12:08:02.065Z,1022.5
2023-01-04T12:09:02.029Z,1022.4
2023-01-04T12:10:02.024Z,1022.4
2023-01-04T12:11:01.749Z,1022.4
2023-01-04T12:12:01.816Z,1022.7
2023-01-04T12:13:02.824Z,1022.4
2023-01-04T12:14:02.709Z,1022.3
2023-01-04T12:15:02.576Z,1022.3
2023-01-04T12:16:02.498Z,1022.4
2023-01-04T12:17:02.277Z,1022.2
2023-01-04T12:18:02.319Z,1022.2
2023-01-04T12:19:02.120Z,1022.4
2023-01-04T12:20:02.156Z,1022.1
2023-01-04T12:21:01.931Z,1022.2
2023-01-04T12:22:01.973Z,1022.4
2023-01-04T12:23:01.775Z,1022.3
2023-01-04T12:24:01.869Z,1022.3
2023-01-04T12:25:02.769Z,1022.2
2023-01-04T12:26:02.699Z,1022.3
2023-01-04T12:27:02.793Z,1022.1
2023-01-04T12:28:02.603Z,1022.2
2023-01-04T12:29:02.672Z,1022.1
2023-01-04T12:30:02.589Z,1022.1
2023-01-04T12:32:02.361Z,1022
2023-01-04T12:33:02.408Z,1022.1